createdAt,value
2023-01-25T00:00:11.968Z,33.70
2023-01-25T00:02:35.624Z,33.27
2023-01-25T00:04:59.182Z,32.93
2023-01-25T00:07:24.164Z,32.83
2023-01-25T00:09:47.702Z,32.87
2023-01-25T00:12:11.311Z,33.10
2023-01-25T00:14:34.841Z,34.33
2023-01-25T00:16:58.390Z,31.13
2023-01-25T00:19:22.357Z,35.83
2023-01-25T00:21:46.017Z,34.13
2023-01-25T00:24:11.809Z,33.27
2023-01-25T00:26:36.700Z,31.60
2023-01-25T00:29:00.261Z,34.90
2023-01-25T00:31:34.323Z,33.20
2023-01-25T00:34:07.703Z,35.00
2023-01-25T00:36:41.944Z,30.20
2023-01-25T00:39:08.283Z,36.23
2023-01-25T00:41:33.816Z,36.87
2023-01-25T00:43:58.085Z,36.63
2023-01-25T00:46:21.656Z,36.90
2023-01-25T00:48:45.567Z,33.07
2023-01-25T00:51:09.097Z,31.83
2023-01-25T00:53:32.937Z,34.33
2023-01-25T00:55:56.467Z,29.53
2023-01-25T00:58:21.508Z,34.73
2023-01-25T01:00:45.175Z,31.63
2023-01-25T01:03:08.803Z,34.43
2023-01-25T01:05:32.397Z,31.60
2023-01-25T01:07:57.837Z,32.63
2023-01-25T01:10:21.365Z,34.20
2023-01-25T01:12:47.012Z,31.37
2023-01-25T01:15:12.619Z,30.33
2023-01-25T01:17:36.678Z,33.50
2023-01-25T01:20:00.207Z,29.90
2023-01-25T01:22:23.773Z,36.83
2023-01-25T01:24:49.922Z,29.57
2023-01-25T01:27:13.621Z,27.90
2023-01-25T01:29:37.198Z,30.20
2023-01-25T01:32:02.375Z,30.40
2023-01-25T01:34:26.014Z,29.83
2023-01-25T01:36:51.085Z,32.47
2023-01-25T01:39:14.869Z,28.43
2023-01-25T01:41:39.327Z,29.13
2023-01-25T01:44:04.763Z,28.33
2023-01-25T01:46:35.121Z,32.70
2023-01-25T01:49:04.287Z,30.93
2023-01-25T01:51:46.827Z,32.10
2023-01-25T01:54:21.245Z,29.67
2023-01-25T01:56:52.567Z,31.33
2023-01-25T01:59:16.888Z,29.50
2023-01-25T02:01:41.051Z,28.67
2023-01-25T02:04:08.877Z,30.20
2023-01-25T02:06:42.011Z,29.63
2023-01-25T02:09:06.034Z,27.83
2023-01-25T02:11:30.648Z,28.90
2023-01-25T02:13:56.185Z,31.23
2023-01-25T02:16:25.590Z,25.27
2023-01-25T02:18:49.232Z,30.60
2023-01-25T02:21:14.241Z,31.73
2023-01-25T02:23:48.584Z,29.37
2023-01-25T02:26:13.885Z,30.93
2023-01-25T02:28:42.911Z,29.77
2023-01-25T02:31:07.358Z,28.37
2023-01-25T02:33:31.039Z,29.30
2023-01-25T02:36:01.492Z,27.60
2023-01-25T02:38:25.090Z,30.40
2023-01-25T02:40:57.218Z,30.60
2023-01-25T02:43:22.635Z,30.27
2023-01-25T02:45:50.510Z,29.80
2023-01-25T02:48:14.112Z,28.40
2023-01-25T02:50:37.658Z,31.83
2023-01-25T02:53:01.245Z,31.50
2023-01-25T02:55:24.800Z,27.63
2023-01-25T02:57:48.449Z,29.53
2023-01-25T03:00:15.168Z,32.47
2023-01-25T03:02:40.351Z,31.70
2023-01-25T03:05:03.962Z,27.63
2023-01-25T03:07:27.707Z,29.63
2023-01-25T03:09:52.452Z,29.60
2023-01-25T03:12:16.117Z,30.43
2023-01-25T03:14:41.166Z,33.43
2023-01-25T03:17:07.543Z,30.60
2023-01-25T03:19:31.598Z,35.40
2023-01-25T03:21:55.315Z,34.43
2023-01-25T03:24:20.031Z,34.17
2023-01-25T03:27:02.157Z,33.13
2023-01-25T03:29:34.567Z,31.17
2023-01-25T03:32:00.166Z,31.77
2023-01-25T03:34:25.149Z,34.50
2023-01-25T03:36:50.079Z,31.97
2023-01-25T03:39:14.580Z,33.00
2023-01-25T03:41:40.194Z,33.33
2023-01-25T03:44:06.872Z,32.73
2023-01-25T03:46:30.507Z,37.27
2023-01-25T03:48:54.540Z,32.07
2023-01-25T03:51:19.642Z,35.13
2023-01-25T03:53:43.159Z,33.43
2023-01-25T03:56:17.643Z,35.63
2023-01-25T03:58:48.602Z,34.73
2023-01-25T04:01:12.417Z,30.50
2023-01-25T04:03:36.512Z,35.63
2023-01-25T04:06:01.768Z,34.27
2023-01-25T04:08:28.553Z,33.43
2023-01-25T04:10:53.671Z,33.57
2023-01-25T04:13:17.621Z,33.63
2023-01-25T04:15:41.248Z,38.03
2023-01-25T04:18:13.781Z,32.67
2023-01-25T04:20:37.435Z,37.57
2023-01-25T04:23:01.374Z,34.43
2023-01-25T04:25:32.921Z,35.43
2023-01-25T04:27:56.625Z,33.07
2023-01-25T04:30:20.918Z,35.30
2023-01-25T04:32:46.166Z,37.33
2023-01-25T04:35:17.002Z,35.77
2023-01-25T04:37:40.965Z,33.00
2023-01-25T04:40:05.371Z,35.77
2023-01-25T04:42:35.337Z,32.50
2023-01-25T04:44:58.948Z,40.37
2023-01-25T04:47:23.765Z,36.10
2023-01-25T04:49:47.467Z,36.50
2023-01-25T04:52:14.254Z,35.07
2023-01-25T04:54:37.768Z,35.27
2023-01-25T04:57:01.760Z,34.60
2023-01-25T04:59:26.829Z,40.87
2023-01-25T05:01:51.539Z,38.10
2023-01-25T05:04:15.150Z,34.50
2023-01-25T05:06:41.957Z,39.67
2023-01-25T05:09:05.938Z,40.63
2023-01-25T05:11:31.422Z,40.60
2023-01-25T05:14:17.800Z,34.00
2023-01-25T05:16:44.197Z,35.43
2023-01-25T05:19:07.784Z,33.47
2023-01-25T05:22:00.818Z,32.50
2023-01-25T05:24:30.962Z,36.50
2023-01-25T05:27:03.671Z,34.40
2023-01-25T05:29:57.143Z,32.60
2023-01-25T05:32:38.939Z,35.40
2023-01-25T05:35:02.918Z,37.10
2023-01-25T05:37:26.705Z,35.80
2023-01-25T05:39:58.384Z,38.13
2023-01-25T05:42:22.507Z,36.07
2023-01-25T05:44:47.956Z,34.93
2023-01-25T05:47:15.135Z,35.60
2023-01-25T05:49:40.624Z,40.23
2023-01-25T05:52:07.167Z,43.30
2023-01-25T05:54:31.808Z,35.70
2023-01-25T05:57:00.254Z,36.97
2023-01-25T05:59:23.890Z,41.70
2023-01-25T06:01:48.048Z,40.23
2023-01-25T06:04:14.378Z,38.57
2023-01-25T06:06:39.314Z,39.33
2023-01-25T06:09:03.596Z,39.93
2023-01-25T06:11:27.205Z,38.40
2023-01-25T06:13:52.689Z,40.33
2023-01-25T06:16:18.461Z,38.73
2023-01-25T06:19:14.079Z,38.50
2023-01-25T06:21:57.011Z,37.17
2023-01-25T06:24:21.416Z,42.67
2023-01-25T06:26:45.046Z,39.87
2023-01-25T06:29:08.951Z,36.70
2023-01-25T06:31:32.939Z,41.30
2023-01-25T06:33:59.221Z,42.20
2023-01-25T06:36:24.412Z,42.13
2023-01-25T06:38:52.584Z,42.60
2023-01-25T06:41:16.141Z,41.03
2023-01-25T06:43:39.895Z,39.97
2023-01-25T06:46:05.351Z,39.37
2023-01-25T06:48:29.801Z,42.63
2023-01-25T06:50:57.048Z,39.30
2023-01-25T06:53:20.696Z,45.13
2023-01-25T06:55:45.615Z,40.57
2023-01-25T06:58:09.164Z,40.27
2023-01-25T07:00:32.723Z,41.97
2023-01-25T07:02:56.426Z,39.30
2023-01-25T07:05:20.005Z,37.33
2023-01-25T07:07:47.288Z,41.93
2023-01-25T07:10:12.235Z,37.63
2023-01-25T07:12:37.335Z,41.40
2023-01-25T07:15:00.931Z,38.43
2023-01-25T07:17:24.863Z,35.80
2023-01-25T07:19:48.788Z,38.80
2023-01-25T07:22:12.404Z,39.47
2023-01-25T07:24:35.938Z,35.50
2023-01-25T07:26:59.552Z,37.87
2023-01-25T07:29:24.747Z,39.07
2023-01-25T07:31:48.449Z,34.83
2023-01-25T07:34:14.200Z,36.70
2023-01-25T07:36:38.475Z,34.80
2023-01-25T07:39:01.997Z,30.77
2023-01-25T07:41:27.189Z,27.80
2023-01-25T07:43:50.861Z,31.83
2023-01-25T07:46:27.096Z,31.00
2023-01-25T07:48:52.576Z,32.13
2023-01-25T07:51:27.122Z,33.63
2023-01-25T07:53:52.394Z,30.33
2023-01-25T07:56:15.907Z,25.90
2023-01-25T07:58:39.854Z,27.23
2023-01-25T08:01:08.700Z,24.97
2023-01-25T08:03:33.722Z,26.60
2023-01-25T08:05:57.223Z,30.80
2023-01-25T08:08:20.903Z,26.20
2023-01-25T08:10:44.434Z,26.53
2023-01-25T08:13:08.311Z,26.33
2023-01-25T08:15:31.879Z,25.97
2023-01-25T08:17:55.420Z,26.57
2023-01-25T08:20:22.534Z,25.93
2023-01-25T08:22:46.128Z,26.07
2023-01-25T08:25:10.729Z,29.70
2023-01-25T08:27:34.651Z,29.47
2023-01-25T08:29:58.161Z,30.30
2023-01-25T08:32:21.863Z,29.73
2023-01-25T08:34:45.383Z,30.43
2023-01-25T08:37:10.328Z,31.87
2023-01-25T08:39:34.488Z,31.93
2023-01-25T08:41:58.093Z,32.37
2023-01-25T08:44:24.140Z,35.00
2023-01-25T08:46:47.707Z,32.53
2023-01-25T08:49:11.520Z,31.87
2023-01-25T08:51:35.404Z,28.77
2023-01-25T08:54:04.395Z,29.00
2023-01-25T08:56:27.972Z,27.77
2023-01-25T08:58:52.067Z,29.27
2023-01-25T09:01:17.904Z,28.63
2023-01-25T09:03:44.167Z,28.90
2023-01-25T09:06:09.223Z,33.57
2023-01-25T09:08:33.276Z,33.03
2023-01-25T09:11:02.962Z,32.73
2023-01-25T09:13:26.678Z,29.87
2023-01-25T09:15:50.335Z,32.90
2023-01-25T09:18:14.812Z,30.40
2023-01-25T09:20:40.684Z,33.27
2023-01-25T09:23:04.217Z,28.87
2023-01-25T09:25:27.813Z,29.13
2023-01-25T09:27:53.079Z,29.57
2023-01-25T09:30:19.027Z,27.90
2023-01-25T09:32:49.689Z,34.80
2023-01-25T09:35:13.325Z,31.33
2023-01-25T09:37:36.856Z,34.70
2023-01-25T09:40:00.407Z,28.87
2023-01-25T09:42:59.613Z,31.57
2023-01-25T09:45:32.668Z,29.90
2023-01-25T09:48:02.003Z,30.37
2023-01-25T09:50:38.450Z,27.90
2023-01-25T09:53:34.993Z,32.13
2023-01-25T09:56:03.596Z,28.20
2023-01-25T09:58:34.564Z,34.70
2023-01-25T10:01:19.523Z,35.33
2023-01-25T10:03:57.305Z,29.43
2023-01-25T10:06:23.420Z,31.90
2023-01-25T10:08:55.097Z,33.00
2023-01-25T10:11:26.089Z,35.57
2023-01-25T10:13:51.211Z,33.80
2023-01-25T10:16:25.853Z,35.60
2023-01-25T10:19:04.378Z,38.03
2023-01-25T10:21:33.763Z,32.77
2023-01-25T10:24:47.193Z,30.47
2023-01-25T10:27:24.677Z,34.67
2023-01-25T10:29:51.539Z,30.97
2023-01-25T10:32:20.401Z,37.67
2023-01-25T10:34:56.209Z,37.37
2023-01-25T10:37:23.664Z,31.50
2023-01-25T10:39:55.862Z,37.20
2023-01-25T10:42:20.367Z,36.90
2023-01-25T10:44:43.959Z,35.23
2023-01-25T10:47:17.346Z,31.13
2023-01-25T10:49:44.550Z,31.00
2023-01-25T10:52:18.539Z,35.57
2023-01-25T10:54:42.320Z,35.13
2023-01-25T10:57:08.423Z,37.33
2023-01-25T10:59:32.539Z,39.07
2023-01-25T11:01:57.467Z,35.97
2023-01-25T11:04:35.074Z,38.43
2023-01-25T11:06:59.615Z,34.87
2023-01-25T11:09:36.752Z,46.63
2023-01-25T11:12:02.289Z,41.17
2023-01-25T11:14:28.493Z,45.13
2023-01-25T11:16:52.209Z,43.30
2023-01-25T11:19:34.488Z,36.10
2023-01-25T11:21:59.985Z,42.43
2023-01-25T11:24:29.591Z,44.43
2023-01-25T11:27:13.411Z,40.63
2023-01-25T11:29:36.994Z,43.17
2023-01-25T11:32:00.565Z,44.33
2023-01-25T11:34:28.770Z,41.30
2023-01-25T11:37:19.485Z,42.00
2023-01-25T11:39:59.859Z,41.40
2023-01-25T11:42:35.642Z,46.77
2023-01-25T11:45:36.025Z,43.30
2023-01-25T11:48:19.585Z,42.10
2023-01-25T11:50:47.508Z,42.30
2023-01-25T11:53:46.361Z,47.30
2023-01-25T11:56:22.391Z,46.07
2023-01-25T11:59:20.271Z,45.57
2023-01-25T12:02:08.537Z,48.80
2023-01-25T12:05:09.708Z,45.77
2023-01-25T12:07:52.901Z,45.33
2023-01-25T12:10:29.823Z,49.17
2023-01-25T12:13:03.845Z,47.33
2023-01-25T12:15:42.385Z,46.47
2023-01-25T12:18:45.057Z,44.70
2023-01-25T12:21:31.216Z,47.40
2023-01-25T12:24:20.980Z,46.13
2023-01-25T12:26:57.456Z,43.77
2023-01-25T12:29:28.162Z,42.77
2023-01-25T12:31:59.944Z,39.03
2023-01-25T12:34:28.437Z,45.03
2023-01-25T12:36:52.641Z,45.40
2023-01-25T12:39:24.398Z,43.77
2023-01-25T12:41:54.784Z,44.23
2023-01-25T12:44:24.762Z,46.03
2023-01-25T12:46:56.973Z,42.67
2023-01-25T12:49:29.749Z,47.93
2023-01-25T12:51:55.128Z,52.27
2023-01-25T12:54:24.621Z,49.50
2023-01-25T12:56:59.908Z,49.70
2023-01-25T12:59:35.295Z,49.77
2023-01-25T13:02:16.242Z,57.90
2023-01-25T13:04:56.856Z,44.57
2023-01-25T13:07:27.379Z,36.70
2023-01-25T13:10:00.919Z,41.33
2023-01-25T13:12:25.979Z,47.57
2023-01-25T13:14:49.478Z,42.37
2023-01-25T13:17:23.393Z,46.57
2023-01-25T13:19:46.991Z,42.63
2023-01-25T13:22:12.769Z,43.53
2023-01-25T13:25:11.241Z,42.27
2023-01-25T13:27:37.619Z,43.57
2023-01-25T13:30:30.796Z,42.77
2023-01-25T13:32:58.866Z,42.17
2023-01-25T13:35:38.084Z,39.57
2023-01-25T13:38:20.361Z,40.73
2023-01-25T13:40:43.967Z,45.37
2023-01-25T13:43:20.896Z,54.23
2023-01-25T13:45:46.095Z,47.93
2023-01-25T13:48:19.041Z,44.57
2023-01-25T13:50:50.266Z,58.37
2023-01-25T13:53:22.296Z,45.80
2023-01-25T13:55:48.287Z,47.60
2023-01-25T13:58:20.456Z,44.97
2023-01-25T14:00:54.716Z,49.20
2023-01-25T14:03:18.657Z,48.13
2023-01-25T14:05:50.382Z,55.47
2023-01-25T14:08:14.868Z,47.93
2023-01-25T14:10:38.770Z,49.30
2023-01-25T14:13:03.508Z,55.17
2023-01-25T14:15:30.699Z,50.10
2023-01-25T14:18:16.352Z,56.20
2023-01-25T14:20:40.185Z,54.33
2023-01-25T14:23:03.913Z,52.80
2023-01-25T14:25:27.578Z,49.13
2023-01-25T14:27:54.557Z,41.87
2023-01-25T14:30:24.027Z,40.40
2023-01-25T14:32:50.311Z,44.47
2023-01-25T14:35:53.669Z,46.33
2023-01-25T14:38:32.334Z,45.27
2023-01-25T14:41:00.352Z,44.30
2023-01-25T14:43:25.466Z,40.43
2023-01-25T14:45:49.051Z,41.97
2023-01-25T14:48:49.699Z,47.80
2023-01-25T14:51:21.487Z,42.57
2023-01-25T14:53:50.216Z,39.33
2023-01-25T14:56:35.483Z,44.73
2023-01-25T14:59:00.608Z,44.13
2023-01-25T15:01:34.982Z,43.90
2023-01-25T15:04:00.149Z,42.30
2023-01-25T15:06:23.905Z,41.97
2023-01-25T15:08:48.225Z,46.67
2023-01-25T15:11:38.766Z,43.73
2023-01-25T15:14:04.542Z,45.60
2023-01-25T15:16:34.895Z,43.53
2023-01-25T15:18:59.883Z,43.03
2023-01-25T15:21:27.218Z,47.53
2023-01-25T15:23:51.777Z,51.50
2023-01-25T15:26:21.157Z,49.73
2023-01-25T15:28:44.751Z,50.63
2023-01-25T15:31:08.424Z,45.27
2023-01-25T15:33:33.177Z,47.30
2023-01-25T15:35:58.072Z,42.17
2023-01-25T15:38:22.996Z,50.10
2023-01-25T15:40:47.404Z,49.63
2023-01-25T15:43:13.226Z,56.07
2023-01-25T15:45:36.804Z,52.33
2023-01-25T15:48:00.939Z,51.70
2023-01-25T15:50:24.445Z,53.20
2023-01-25T15:52:49.655Z,54.07
2023-01-25T15:55:15.293Z,48.33
2023-01-25T15:57:39.075Z,56.97
2023-01-25T16:00:02.872Z,53.77
2023-01-25T16:02:27.999Z,48.37
2023-01-25T16:04:51.623Z,52.97
2023-01-25T16:07:24.577Z,57.10
2023-01-25T16:09:50.120Z,46.03
2023-01-25T16:12:15.829Z,61.53
2023-01-25T16:14:39.499Z,54.00
2023-01-25T16:17:05.759Z,53.93
2023-01-25T16:19:30.002Z,50.53
2023-01-25T16:21:53.882Z,48.00
2023-01-25T16:24:18.139Z,42.43
2023-01-25T16:26:47.563Z,42.50
2023-01-25T16:29:14.277Z,48.17
2023-01-25T16:31:38.095Z,47.47
2023-01-25T16:34:02.740Z,45.43
2023-01-25T16:36:27.312Z,47.80
2023-01-25T16:38:51.425Z,47.47
2023-01-25T16:41:15.242Z,51.37
2023-01-25T16:43:43.058Z,46.00
2023-01-25T16:46:06.952Z,45.67
2023-01-25T16:48:30.564Z,41.07
2023-01-25T16:50:54.160Z,44.73
2023-01-25T16:53:17.818Z,45.20
2023-01-25T16:55:41.322Z,42.93
2023-01-25T16:58:04.993Z,55.30
2023-01-25T17:00:29.959Z,49.03
2023-01-25T17:02:59.106Z,48.33
2023-01-25T17:05:23.083Z,54.80
2023-01-25T17:07:51.319Z,51.73
2023-01-25T17:10:14.879Z,51.00
2023-01-25T17:12:38.933Z,47.67
2023-01-25T17:15:02.535Z,50.10
2023-01-25T17:17:29.858Z,57.13
2023-01-25T17:19:53.352Z,55.00
2023-01-25T17:22:17.057Z,54.87
2023-01-25T17:24:40.639Z,47.03
2023-01-25T17:27:05.118Z,48.17
2023-01-25T17:29:29.835Z,44.77
2023-01-25T17:31:53.922Z,47.63
2023-01-25T17:34:21.696Z,50.77
2023-01-25T17:36:46.210Z,47.93
2023-01-25T17:39:10.227Z,47.37
2023-01-25T17:41:34.331Z,53.07
2023-01-25T17:43:58.022Z,54.57
2023-01-25T17:46:26.135Z,47.17
2023-01-25T17:48:49.803Z,50.43
2023-01-25T17:51:15.127Z,49.07
2023-01-25T17:53:38.694Z,52.73
2023-01-25T17:56:03.965Z,50.97
2023-01-25T17:58:27.537Z,51.83
2023-01-25T18:00:52.390Z,50.83
2023-01-25T18:03:16.019Z,47.73
2023-01-25T18:05:39.845Z,52.43
2023-01-25T18:08:05.852Z,41.07
2023-01-25T18:10:29.518Z,49.73
2023-01-25T18:13:03.966Z,53.37
2023-01-25T18:15:28.035Z,47.10
2023-01-25T18:17:51.755Z,54.33
2023-01-25T18:20:15.914Z,41.57
2023-01-25T18:22:39.516Z,45.90
2023-01-25T18:25:04.801Z,55.03
2023-01-25T18:27:29.748Z,47.97
2023-01-25T18:30:01.163Z,46.33
2023-01-25T18:32:24.798Z,53.30
2023-01-25T18:34:48.842Z,50.43
2023-01-25T18:37:21.854Z,49.53
2023-01-25T18:39:45.709Z,40.90
2023-01-25T18:42:11.192Z,41.80
2023-01-25T18:44:35.183Z,25.33
2023-01-25T18:46:59.359Z,40.80
2023-01-25T18:49:22.943Z,41.97
2023-01-25T18:52:04.791Z,57.67
2023-01-25T18:54:30.830Z,46.23
2023-01-25T18:56:55.673Z,50.80
2023-01-25T18:59:20.692Z,51.57
2023-01-25T19:01:44.246Z,63.00
2023-01-25T19:04:07.849Z,118.87
2023-01-25T19:06:31.531Z,55.23
2023-01-25T19:08:56.516Z,48.50
2023-01-25T19:11:21.883Z,59.17
2023-01-25T19:13:46.071Z,43.77
2023-01-25T19:16:15.014Z,51.90
2023-01-25T19:18:44.524Z,66.30
2023-01-25T19:21:10.148Z,42.60
2023-01-25T19:23:35.279Z,37.83
2023-01-25T19:25:58.847Z,40.73
2023-01-25T19:28:23.049Z,34.33
2023-01-25T19:30:46.607Z,37.03
2023-01-25T19:33:11.552Z,39.40
2023-01-25T19:35:35.121Z,33.97
2023-01-25T19:37:58.678Z,37.80
2023-01-25T19:40:24.972Z,39.30
2023-01-25T19:42:48.564Z,36.77
2023-01-25T19:45:12.976Z,34.43
2023-01-25T19:47:37.007Z,37.27
2023-01-25T19:50:02.799Z,29.73
2023-01-25T19:52:26.412Z,29.80
2023-01-25T19:54:49.948Z,38.77
2023-01-25T19:57:13.583Z,29.77
2023-01-25T19:59:37.097Z,26.43
2023-01-25T20:02:00.783Z,33.13
2023-01-25T20:04:25.723Z,29.50
2023-01-25T20:06:51.877Z,28.67
2023-01-25T20:09:17.366Z,31.90
2023-01-25T20:11:41.290Z,30.57
2023-01-25T20:14:06.655Z,31.73
2023-01-25T20:16:32.490Z,28.70
2023-01-25T20:18:57.915Z,31.70
2023-01-25T20:21:23.534Z,28.37
2023-01-25T20:23:50.752Z,30.87
2023-01-25T20:26:17.758Z,33.30
2023-01-25T20:28:42.594Z,29.83
2023-01-25T20:31:06.742Z,29.47
2023-01-25T20:33:30.576Z,26.13
2023-01-25T20:35:58.187Z,27.93
2023-01-25T20:38:21.751Z,32.53
2023-01-25T20:40:46.696Z,33.00
2023-01-25T20:43:10.250Z,34.20
2023-01-25T20:45:34.878Z,28.33
2023-01-25T20:47:58.456Z,35.63
2023-01-25T20:50:22.099Z,33.93
2023-01-25T20:52:45.612Z,30.97
2023-01-25T20:55:10.892Z,34.33
2023-01-25T20:57:35.990Z,44.90
2023-01-25T20:59:59.540Z,36.80
2023-01-25T21:02:23.182Z,33.43
2023-01-25T21:04:46.888Z,32.97
2023-01-25T21:07:10.468Z,36.10
2023-01-25T21:09:34.068Z,37.50
2023-01-25T21:11:57.584Z,32.23
2023-01-25T21:14:22.570Z,34.60
2023-01-25T21:16:46.080Z,33.13
2023-01-25T21:19:09.820Z,34.80
2023-01-25T21:21:34.865Z,32.80
2023-01-25T21:24:02.521Z,40.87
2023-01-25T21:26:29.072Z,37.40
2023-01-25T21:28:55.010Z,33.20
2023-01-25T21:31:22.281Z,36.60
2023-01-25T21:33:46.366Z,39.57
2023-01-25T21:36:11.896Z,37.60
2023-01-25T21:38:35.824Z,32.73
2023-01-25T21:41:02.229Z,34.80
2023-01-25T21:43:25.823Z,35.97
2023-01-25T21:46:07.032Z,36.83
2023-01-25T21:48:48.759Z,33.27
2023-01-25T21:51:30.602Z,34.03
2023-01-25T21:53:54.251Z,38.03
2023-01-25T21:56:17.748Z,32.87
2023-01-25T21:58:41.338Z,41.27
2023-01-25T22:01:09.709Z,39.30
2023-01-25T22:03:34.666Z,40.93
2023-01-25T22:05:58.204Z,44.00
2023-01-25T22:08:21.754Z,40.03
2023-01-25T22:10:45.259Z,39.50
2023-01-25T22:13:08.802Z,41.20
2023-01-25T22:15:33.800Z,42.10
2023-01-25T22:17:57.484Z,43.27
2023-01-25T22:20:22.504Z,45.97
2023-01-25T22:22:46.067Z,40.67
2023-01-25T22:25:10.741Z,45.63
2023-01-25T22:27:46.539Z,33.93
2023-01-25T22:30:13.206Z,44.07
2023-01-25T22:32:36.919Z,49.80
2023-01-25T22:35:00.521Z,44.70
2023-01-25T22:37:25.436Z,45.30
2023-01-25T22:39:49.011Z,37.07
2023-01-25T22:42:12.515Z,39.23
2023-01-25T22:44:36.055Z,42.57
2023-01-25T22:46:59.565Z,40.77
2023-01-25T22:49:23.201Z,46.53
2023-01-25T22:51:46.785Z,38.37
2023-01-25T22:54:11.820Z,37.30
2023-01-25T22:56:35.760Z,35.27
2023-01-25T22:59:00.568Z,35.23
2023-01-25T23:01:27.055Z,33.50
2023-01-25T23:03:52.738Z,34.43
2023-01-25T23:06:18.881Z,33.73
2023-01-25T23:08:43.521Z,32.83
2023-01-25T23:11:11.466Z,36.13
2023-01-25T23:13:37.021Z,33.83
2023-01-25T23:16:04.020Z,30.57
2023-01-25T23:18:44.696Z,37.17
2023-01-25T23:21:08.732Z,34.43
2023-01-25T23:23:32.508Z,36.90
2023-01-25T23:25:58.077Z,35.13
2023-01-25T23:28:22.968Z,32.67
2023-01-25T23:30:46.641Z,35.67
2023-01-25T23:33:10.228Z,33.63
2023-01-25T23:35:33.859Z,39.37
2023-01-25T23:37:57.369Z,33.37
2023-01-25T23:40:21.054Z,32.83
2023-01-25T23:42:44.591Z,35.70
2023-01-25T23:45:12.038Z,32.93
2023-01-25T23:47:36.041Z,30.87
2023-01-25T23:49:59.684Z,32.73
2023-01-25T23:52:23.190Z,31.63
2023-01-25T23:54:46.811Z,37.20
2023-01-25T23:57:10.314Z,33.07
2023-01-25T23:59:35.375Z,40.53
